XNO91I EGGD-EHAM
Flight info
| Callsign | XNO91I |
|---|---|
| Flight time | 0h 53m |
| Altitude | 29000 |
| Route | YORQI L607 ALHAD P72 IPRIL M197 REDFA |
| Aircraft | A319/M-SDE3FGHIRWY/LB1 |
Departure
| Time | 2026-05-04 18:10 |
|---|---|
| Airport | Bristol Airport (EGGD) |
Arrival
| Time | 2026-05-04 19:03 |
|---|---|
| Airport | Amsterdam Airport Schiphol (EHAM) |
| Time | Latitude | Longitude | Altitude | Speed | Heading |
|---|---|---|---|---|---|
| 2026-05-04 17:26 | 51.38546 | -2.71480 | 612 ft | 0 kts | 356° |
| 2026-05-04 17:59 | 51.38509 | -2.71480 | 618 ft | 4 kts | 11° |
| 2026-05-04 18:00 | 51.38487 | -2.71495 | 612 ft | 4 kts | 60° |
| 2026-05-04 18:00 | 51.38484 | -2.71507 | 627 ft | 3 kts | 86° |
| 2026-05-04 18:00 | 51.38485 | -2.71470 | 622 ft | 1 kts | 88° |
| 2026-05-04 18:03 | 51.38485 | -2.71466 | 621 ft | 2 kts | 88° |
| 2026-05-04 18:03 | 51.38484 | -2.71428 | 613 ft | 4 kts | 102° |
| 2026-05-04 18:03 | 51.38461 | -2.71407 | 614 ft | 3 kts | 175° |
| 2026-05-04 18:04 | 51.38447 | -2.71441 | 618 ft | 6 kts | 259° |
| 2026-05-04 18:04 | 51.38442 | -2.71565 | 608 ft | 15 kts | 267° |
| 2026-05-04 18:04 | 51.38433 | -2.71970 | 606 ft | 20 kts | 270° |
| 2026-05-04 18:05 | 51.38426 | -2.72199 | 607 ft | 20 kts | 266° |
| 2026-05-04 18:05 | 51.38418 | -2.72419 | 611 ft | 19 kts | 266° |
| 2026-05-04 18:05 | 51.38409 | -2.72640 | 622 ft | 22 kts | 266° |
| 2026-05-04 18:05 | 51.38398 | -2.72920 | 605 ft | 27 kts | 266° |
| 2026-05-04 18:06 | 51.38389 | -2.73154 | 608 ft | 0 kts | 266° |
| 2026-05-04 18:09 | 51.38375 | -2.73274 | 620 ft | 16 kts | 243° |
| 2026-05-04 18:09 | 51.38217 | -2.73214 | 628 ft | 12 kts | 89° |
| 2026-05-04 18:10 | 51.38228 | -2.72913 | 628 ft | 59 kts | 86° |
| 2026-05-04 18:10 | 51.38252 | -2.72307 | 634 ft | 105 kts | 86° |
| 2026-05-04 18:10 | 51.38307 | -2.70850 | 778 ft | 142 kts | 87° |
| 2026-05-04 18:10 | 51.38364 | -2.69315 | 1469 ft | 137 kts | 84° |
| 2026-05-04 18:11 | 51.38404 | -2.67794 | 2116 ft | 136 kts | 84° |
| 2026-05-04 18:11 | 51.38452 | -2.66288 | 2678 ft | 138 kts | 84° |
| 2026-05-04 18:11 | 51.38504 | -2.64612 | 2918 ft | 160 kts | 84° |
| 2026-05-04 18:11 | 51.38563 | -2.62724 | 3228 ft | 182 kts | 84° |
| 2026-05-04 18:12 | 51.38635 | -2.60593 | 3610 ft | 202 kts | 85° |
| 2026-05-04 18:12 | 51.38718 | -2.58212 | 3992 ft | 227 kts | 85° |
| 2026-05-04 18:12 | 51.39112 | -2.55689 | 4558 ft | 244 kts | 62° |
| 2026-05-04 18:12 | 51.40235 | -2.53524 | 5121 ft | 262 kts | 40° |
| 2026-05-04 18:13 | 51.41578 | -2.51510 | 6018 ft | 269 kts | 49° |
| 2026-05-04 18:13 | 51.42617 | -2.48980 | 6854 ft | 275 kts | 65° |
| 2026-05-04 18:13 | 51.43879 | -2.43089 | 8635 ft | 284 kts | 74° |
| 2026-05-04 18:14 | 51.44471 | -2.40035 | 9545 ft | 289 kts | 73° |
| 2026-05-04 18:14 | 51.45125 | -2.36944 | 10274 ft | 301 kts | 72° |
| 2026-05-04 18:14 | 51.45874 | -2.33674 | 10586 ft | 324 kts | 70° |
| 2026-05-04 18:15 | 51.47660 | -2.26480 | 11149 ft | 367 kts | 69° |
| 2026-05-04 18:15 | 51.49553 | -2.18745 | 12529 ft | 377 kts | 75° |
| 2026-05-04 18:15 | 51.50030 | -2.14602 | 12920 ft | 378 kts | 86° |
| 2026-05-04 18:16 | 51.49972 | -2.10381 | 13459 ft | 380 kts | 97° |
| 2026-05-04 18:16 | 51.49644 | -2.06163 | 14192 ft | 382 kts | 98° |
| 2026-05-04 18:16 | 51.49330 | -2.01907 | 14841 ft | 386 kts | 97° |
| 2026-05-04 18:17 | 51.48733 | -1.93270 | 16113 ft | 394 kts | 97° |
| 2026-05-04 18:17 | 51.48433 | -1.88880 | 16737 ft | 397 kts | 97° |
| 2026-05-04 18:17 | 51.47831 | -1.79985 | 17984 ft | 406 kts | 94° |
| 2026-05-04 18:18 | 51.48076 | -1.75455 | 18541 ft | 412 kts | 79° |
| 2026-05-04 18:18 | 51.48722 | -1.70960 | 19070 ft | 415 kts | 78° |
| 2026-05-04 18:18 | 51.49388 | -1.66437 | 19581 ft | 418 kts | 78° |
| 2026-05-04 18:18 | 51.50067 | -1.61881 | 20081 ft | 422 kts | 78° |
| 2026-05-04 18:19 | 51.51437 | -1.52641 | 21057 ft | 428 kts | 78° |
| 2026-05-04 18:19 | 51.52123 | -1.47969 | 21534 ft | 432 kts | 78° |
| 2026-05-04 18:19 | 51.52809 | -1.43260 | 21979 ft | 435 kts | 78° |
| 2026-05-04 18:20 | 51.53494 | -1.38527 | 22488 ft | 436 kts | 79° |
| 2026-05-04 18:20 | 51.54181 | -1.33764 | 22961 ft | 439 kts | 79° |
| 2026-05-04 18:20 | 51.54872 | -1.28980 | 23407 ft | 441 kts | 79° |
| 2026-05-04 18:20 | 51.55566 | -1.24161 | 23800 ft | 444 kts | 79° |
| 2026-05-04 18:21 | 51.56264 | -1.19309 | 24163 ft | 447 kts | 79° |
| 2026-05-04 18:21 | 51.56966 | -1.14436 | 24516 ft | 449 kts | 79° |
| 2026-05-04 18:21 | 51.57672 | -1.09515 | 24808 ft | 454 kts | 79° |
| 2026-05-04 18:21 | 51.58378 | -1.04559 | 25137 ft | 457 kts | 79° |
| 2026-05-04 18:22 | 51.59086 | -0.99564 | 25467 ft | 459 kts | 79° |
| 2026-05-04 18:22 | 51.59796 | -0.94555 | 25794 ft | 461 kts | 79° |
| 2026-05-04 18:22 | 51.60509 | -0.89520 | 26126 ft | 463 kts | 79° |
| 2026-05-04 18:22 | 51.61220 | -0.84450 | 26447 ft | 465 kts | 79° |
| 2026-05-04 18:23 | 51.61931 | -0.79364 | 26767 ft | 467 kts | 79° |
| 2026-05-04 18:23 | 51.62639 | -0.74257 | 27074 ft | 469 kts | 79° |
| 2026-05-04 18:23 | 51.63345 | -0.69130 | 27376 ft | 471 kts | 79° |
| 2026-05-04 18:23 | 51.64056 | -0.63962 | 27675 ft | 473 kts | 79° |
| 2026-05-04 18:24 | 51.64769 | -0.58779 | 27965 ft | 475 kts | 79° |
| 2026-05-04 18:24 | 51.65486 | -0.53579 | 28255 ft | 477 kts | 79° |
| 2026-05-04 18:24 | 51.66204 | -0.48369 | 28653 ft | 476 kts | 79° |
| 2026-05-04 18:24 | 51.66904 | -0.43244 | 29005 ft | 475 kts | 79° |
| 2026-05-04 18:25 | 51.68310 | -0.32882 | 29057 ft | 472 kts | 79° |
| 2026-05-04 18:25 | 51.69698 | -0.22563 | 29054 ft | 471 kts | 80° |
| 2026-05-04 18:26 | 51.71076 | -0.12237 | 29057 ft | 471 kts | 80° |
| 2026-05-04 18:26 | 51.72455 | -0.01833 | 29052 ft | 471 kts | 80° |
| 2026-05-04 18:27 | 51.73810 | 0.08427 | 29020 ft | 471 kts | 79° |
| 2026-05-04 18:27 | 51.75171 | 0.18751 | 29017 ft | 470 kts | 79° |
| 2026-05-04 18:28 | 51.76513 | 0.29087 | 29015 ft | 470 kts | 80° |
| 2026-05-04 18:28 | 51.77839 | 0.39420 | 29013 ft | 470 kts | 80° |
| 2026-05-04 18:29 | 51.79158 | 0.49756 | 28999 ft | 470 kts | 80° |
| 2026-05-04 18:29 | 51.80473 | 0.60101 | 29004 ft | 470 kts | 80° |
| 2026-05-04 18:30 | 51.82599 | 0.75573 | 29005 ft | 471 kts | 77° |
| 2026-05-04 18:31 | 51.84282 | 0.85807 | 29012 ft | 471 kts | 75° |
| 2026-05-04 18:31 | 51.86193 | 0.95959 | 29017 ft | 472 kts | 74° |
| 2026-05-04 18:32 | 51.88123 | 1.06111 | 29010 ft | 472 kts | 75° |
| 2026-05-04 18:32 | 51.89982 | 1.16296 | 29005 ft | 472 kts | 75° |
| 2026-05-04 18:33 | 51.91795 | 1.26505 | 29021 ft | 472 kts | 76° |
| 2026-05-04 18:33 | 51.93602 | 1.36725 | 29019 ft | 472 kts | 76° |
| 2026-05-04 18:34 | 51.95419 | 1.46946 | 29016 ft | 472 kts | 76° |
| 2026-05-04 18:34 | 51.97214 | 1.57116 | 29007 ft | 473 kts | 76° |
| 2026-05-04 18:35 | 51.99017 | 1.67447 | 29017 ft | 473 kts | 76° |
| 2026-05-04 18:35 | 52.00708 | 1.77689 | 29012 ft | 473 kts | 77° |
| 2026-05-04 18:36 | 52.02285 | 1.88063 | 29014 ft | 473 kts | 78° |
| 2026-05-04 18:36 | 52.03846 | 1.98446 | 29010 ft | 473 kts | 78° |
| 2026-05-04 18:37 | 52.05434 | 2.08838 | 28999 ft | 475 kts | 78° |
| 2026-05-04 18:37 | 52.07026 | 2.19258 | 29011 ft | 475 kts | 78° |
| 2026-05-04 18:37 | 52.07817 | 2.24473 | 28883 ft | 477 kts | 78° |
| 2026-05-04 18:38 | 52.08610 | 2.29716 | 28275 ft | 477 kts | 78° |
| 2026-05-04 18:38 | 52.09400 | 2.34961 | 27680 ft | 478 kts | 78° |
| 2026-05-04 18:38 | 52.10191 | 2.40224 | 27090 ft | 480 kts | 78° |
| 2026-05-04 18:38 | 52.11020 | 2.45482 | 26517 ft | 482 kts | 74° |
| 2026-05-04 18:39 | 52.12229 | 2.50581 | 25948 ft | 485 kts | 65° |
| 2026-05-04 18:39 | 52.13858 | 2.55404 | 25404 ft | 488 kts | 60° |
| 2026-05-04 18:39 | 52.15591 | 2.60167 | 24868 ft | 489 kts | 59° |
| 2026-05-04 18:39 | 52.17324 | 2.64940 | 24346 ft | 490 kts | 59° |
| 2026-05-04 18:40 | 52.19057 | 2.69731 | 23838 ft | 492 kts | 59° |
| 2026-05-04 18:40 | 52.20790 | 2.74536 | 23256 ft | 491 kts | 59° |
| 2026-05-04 18:40 | 52.22505 | 2.79303 | 22654 ft | 487 kts | 59° |
| 2026-05-04 18:40 | 52.24217 | 2.84064 | 22033 ft | 482 kts | 59° |
| 2026-05-04 18:41 | 52.25907 | 2.88767 | 21425 ft | 478 kts | 59° |
| 2026-05-04 18:41 | 52.27578 | 2.93429 | 20847 ft | 474 kts | 59° |
| 2026-05-04 18:41 | 52.29231 | 2.98060 | 20262 ft | 469 kts | 59° |
| 2026-05-04 18:41 | 52.30865 | 3.02647 | 19694 ft | 465 kts | 59° |
| 2026-05-04 18:42 | 52.32483 | 3.07202 | 19133 ft | 462 kts | 59° |
| 2026-05-04 18:42 | 52.34088 | 3.11721 | 18588 ft | 457 kts | 59° |
| 2026-05-04 18:42 | 52.35677 | 3.16200 | 18009 ft | 454 kts | 59° |
| 2026-05-04 18:42 | 52.37253 | 3.20647 | 17390 ft | 449 kts | 59° |
| 2026-05-04 18:43 | 52.38812 | 3.25054 | 16790 ft | 446 kts | 59° |
| 2026-05-04 18:43 | 52.40354 | 3.29431 | 16197 ft | 441 kts | 59° |
| 2026-05-04 18:43 | 52.41875 | 3.33763 | 15618 ft | 438 kts | 59° |
| 2026-05-04 18:43 | 52.43382 | 3.38063 | 15043 ft | 432 kts | 59° |
| 2026-05-04 18:44 | 52.44682 | 3.42416 | 14474 ft | 419 kts | 68° |
| 2026-05-04 18:44 | 52.45009 | 3.43931 | 14282 ft | 413 kts | 72° |
| 2026-05-04 18:44 | 52.46111 | 3.51286 | 13320 ft | 387 kts | 76° |
| 2026-05-04 18:44 | 52.46710 | 3.55507 | 12800 ft | 371 kts | 76° |
| 2026-05-04 18:45 | 52.47287 | 3.59543 | 12343 ft | 356 kts | 76° |
| 2026-05-04 18:45 | 52.47847 | 3.63423 | 11866 ft | 343 kts | 76° |
| 2026-05-04 18:45 | 52.48388 | 3.67171 | 11422 ft | 332 kts | 76° |
| 2026-05-04 18:45 | 52.48907 | 3.70807 | 10998 ft | 322 kts | 77° |
| 2026-05-04 18:46 | 52.49404 | 3.74311 | 10769 ft | 309 kts | 77° |
| 2026-05-04 18:46 | 52.49885 | 3.77715 | 10572 ft | 304 kts | 77° |
| 2026-05-04 18:46 | 52.50363 | 3.81098 | 10377 ft | 304 kts | 77° |
| 2026-05-04 18:46 | 52.50838 | 3.84481 | 10193 ft | 304 kts | 77° |
| 2026-05-04 18:47 | 52.51308 | 3.87847 | 9968 ft | 301 kts | 77° |
| 2026-05-04 18:47 | 52.51776 | 3.91196 | 9839 ft | 301 kts | 77° |
| 2026-05-04 18:47 | 52.52164 | 3.94567 | 9702 ft | 300 kts | 86° |
| 2026-05-04 18:47 | 52.52071 | 3.97960 | 9568 ft | 297 kts | 101° |
| 2026-05-04 18:48 | 52.51471 | 4.01195 | 9424 ft | 296 kts | 114° |
| 2026-05-04 18:48 | 52.50701 | 4.04330 | 9299 ft | 296 kts | 114° |
| 2026-05-04 18:48 | 52.49935 | 4.07459 | 9166 ft | 295 kts | 114° |
| 2026-05-04 18:48 | 52.49174 | 4.10573 | 9031 ft | 293 kts | 113° |
| 2026-05-04 18:49 | 52.48418 | 4.13675 | 8901 ft | 293 kts | 113° |
| 2026-05-04 18:49 | 52.47661 | 4.16776 | 8769 ft | 293 kts | 113° |
| 2026-05-04 18:49 | 52.46899 | 4.19880 | 8634 ft | 294 kts | 113° |
| 2026-05-04 18:49 | 52.46140 | 4.22976 | 8505 ft | 292 kts | 113° |
| 2026-05-04 18:50 | 52.45385 | 4.26056 | 8378 ft | 290 kts | 113° |
| 2026-05-04 18:50 | 52.44633 | 4.29120 | 8247 ft | 290 kts | 113° |
| 2026-05-04 18:50 | 52.43881 | 4.32180 | 8117 ft | 288 kts | 112° |
| 2026-05-04 18:50 | 52.43134 | 4.35213 | 7990 ft | 287 kts | 112° |
| 2026-05-04 18:51 | 52.42387 | 4.38236 | 7862 ft | 286 kts | 112° |
| 2026-05-04 18:51 | 52.41642 | 4.41250 | 7736 ft | 284 kts | 112° |
| 2026-05-04 18:51 | 52.40901 | 4.44248 | 7605 ft | 284 kts | 112° |
| 2026-05-04 18:51 | 52.40158 | 4.47246 | 7485 ft | 284 kts | 112° |
| 2026-05-04 18:52 | 52.39415 | 4.50240 | 7359 ft | 284 kts | 112° |
| 2026-05-04 18:52 | 52.38669 | 4.53226 | 7233 ft | 283 kts | 112° |
| 2026-05-04 18:52 | 52.37922 | 4.56206 | 7107 ft | 282 kts | 112° |
| 2026-05-04 18:52 | 52.37180 | 4.59166 | 6991 ft | 281 kts | 112° |
| 2026-05-04 18:53 | 52.36440 | 4.62127 | 7000 ft | 281 kts | 112° |
| 2026-05-04 18:53 | 52.35696 | 4.65093 | 7005 ft | 283 kts | 112° |
| 2026-05-04 18:53 | 52.34954 | 4.68045 | 7000 ft | 275 kts | 112° |
| 2026-05-04 18:53 | 52.34484 | 4.69919 | 6998 ft | 263 kts | 112° |
| 2026-05-04 18:54 | 52.33808 | 4.72611 | 7002 ft | 251 kts | 112° |
| 2026-05-04 18:54 | 52.32965 | 4.75080 | 7002 ft | 249 kts | 128° |
| 2026-05-04 18:54 | 52.31757 | 4.77104 | 6775 ft | 248 kts | 140° |
| 2026-05-04 18:54 | 52.30463 | 4.78954 | 6552 ft | 246 kts | 140° |
| 2026-05-04 18:55 | 52.29181 | 4.80806 | 6332 ft | 246 kts | 139° |
| 2026-05-04 18:55 | 52.26629 | 4.84506 | 5906 ft | 244 kts | 139° |
| 2026-05-04 18:55 | 52.25365 | 4.86339 | 5693 ft | 243 kts | 139° |
| 2026-05-04 18:56 | 52.24102 | 4.88171 | 5482 ft | 243 kts | 139° |
| 2026-05-04 18:56 | 52.22691 | 4.89640 | 5278 ft | 241 kts | 158° |
| 2026-05-04 18:56 | 52.21072 | 4.90294 | 5059 ft | 239 kts | 177° |
| 2026-05-04 18:56 | 52.19413 | 4.90205 | 4845 ft | 239 kts | 185° |
| 2026-05-04 18:57 | 52.17753 | 4.90037 | 4616 ft | 239 kts | 184° |
| 2026-05-04 18:57 | 52.16093 | 4.89881 | 4395 ft | 239 kts | 183° |
| 2026-05-04 18:57 | 52.14431 | 4.89731 | 4176 ft | 240 kts | 183° |
| 2026-05-04 18:57 | 52.12779 | 4.89388 | 3948 ft | 240 kts | 201° |
| 2026-05-04 18:58 | 52.11449 | 4.87846 | 3737 ft | 237 kts | 234° |
| 2026-05-04 18:58 | 52.10849 | 4.85427 | 3507 ft | 229 kts | 268° |
| 2026-05-04 18:58 | 52.10899 | 4.82889 | 3288 ft | 222 kts | 277° |
| 2026-05-04 18:58 | 52.11308 | 4.80525 | 3076 ft | 214 kts | 298° |
| 2026-05-04 18:59 | 52.12153 | 4.78584 | 2886 ft | 208 kts | 317° |
| 2026-05-04 18:59 | 52.13296 | 4.77234 | 2712 ft | 200 kts | 337° |
| 2026-05-04 18:59 | 52.14593 | 4.76574 | 2537 ft | 192 kts | 357° |
| 2026-05-04 18:59 | 52.15891 | 4.76551 | 2375 ft | 183 kts | 5° |
| 2026-05-04 19:00 | 52.17144 | 4.76643 | 2265 ft | 175 kts | 5° |
| 2026-05-04 19:00 | 52.18327 | 4.76745 | 2106 ft | 166 kts | 6° |
| 2026-05-04 19:00 | 52.19457 | 4.76847 | 1912 ft | 158 kts | 5° |
| 2026-05-04 19:00 | 52.20512 | 4.76943 | 1727 ft | 144 kts | 5° |
| 2026-05-04 19:01 | 52.21458 | 4.77016 | 1508 ft | 131 kts | 5° |
| 2026-05-04 19:01 | 52.22347 | 4.77098 | 1335 ft | 127 kts | 6° |
| 2026-05-04 19:01 | 52.23215 | 4.77199 | 1192 ft | 124 kts | 8° |
| 2026-05-04 19:01 | 52.24076 | 4.77281 | 1031 ft | 124 kts | 6° |
| 2026-05-04 19:02 | 52.24933 | 4.77357 | 856 ft | 124 kts | 6° |
| 2026-05-04 19:02 | 52.25795 | 4.77428 | 675 ft | 122 kts | 5° |
| 2026-05-04 19:02 | 52.26642 | 4.77497 | 548 ft | 122 kts | 5° |
| 2026-05-04 19:02 | 52.27497 | 4.77586 | 367 ft | 123 kts | 5° |
| 2026-05-04 19:03 | 52.28349 | 4.77663 | 182 ft | 124 kts | 4° |
| 2026-05-04 19:03 | 52.29201 | 4.77742 | 26 ft | 122 kts | 6° |
| 2026-05-04 19:03 | 52.29968 | 4.77819 | -6 ft | 94 kts | 2° |
| 2026-05-04 19:03 | 52.30450 | 4.77863 | 1 ft | 45 kts | 3° |
| 2026-05-04 19:04 | 52.30720 | 4.77888 | -5 ft | 36 kts | 2° |
| 2026-05-04 19:04 | 52.30903 | 4.77849 | -7 ft | 23 kts | 337° |
| 2026-05-04 19:04 | 52.31030 | 4.77746 | -3 ft | 16 kts | 333° |
| 2026-05-04 19:04 | 52.31121 | 4.77671 | -2 ft | 13 kts | 333° |
| 2026-05-04 19:05 | 52.31197 | 4.77638 | -2 ft | 10 kts | 2° |
| 2026-05-04 19:05 | 52.31259 | 4.77645 | -2 ft | 8 kts | 4° |
| 2026-05-04 19:05 | 52.31319 | 4.77652 | -2 ft | 9 kts | 3° |
| 2026-05-04 19:05 | 52.31381 | 4.77655 | -2 ft | 9 kts | 1° |
| 2026-05-04 19:06 | 52.31450 | 4.77636 | -2 ft | 11 kts | 337° |
| 2026-05-04 19:06 | 52.31516 | 4.77556 | -2 ft | 13 kts | 317° |
| 2026-05-04 19:06 | 52.31571 | 4.77437 | -2 ft | 14 kts | 291° |
| 2026-05-04 19:06 | 52.31576 | 4.77275 | -3 ft | 15 kts | 267° |
| 2026-05-04 19:07 | 52.31569 | 4.77097 | -3 ft | 16 kts | 267° |
| 2026-05-04 19:07 | 52.31566 | 4.76904 | -3 ft | 17 kts | 262° |
| 2026-05-04 19:07 | 52.31557 | 4.76700 | -2 ft | 19 kts | 265° |
| 2026-05-04 19:07 | 52.31551 | 4.76491 | -2 ft | 18 kts | 269° |
| 2026-05-04 19:08 | 52.31543 | 4.76304 | -2 ft | 16 kts | 266° |
| 2026-05-04 19:08 | 52.31538 | 4.76124 | -2 ft | 16 kts | 266° |
| 2026-05-04 19:08 | 52.31531 | 4.75949 | -2 ft | 15 kts | 267° |
| 2026-05-04 19:08 | 52.31525 | 4.75776 | -2 ft | 15 kts | 266° |
| 2026-05-04 19:09 | 52.31520 | 4.75605 | -3 ft | 15 kts | 267° |
| 2026-05-04 19:09 | 52.31502 | 4.75477 | -2 ft | 10 kts | 224° |
| 2026-05-04 19:09 | 52.31438 | 4.75467 | -2 ft | 9 kts | 178° |
| 2026-05-04 19:09 | 52.31376 | 4.75472 | -2 ft | 8 kts | 178° |
| 2026-05-04 19:10 | 52.31318 | 4.75478 | -2 ft | 9 kts | 178° |
| 2026-05-04 19:10 | 52.31261 | 4.75481 | -2 ft | 8 kts | 175° |
| 2026-05-04 19:10 | 52.31204 | 4.75489 | -2 ft | 9 kts | 174° |
| 2026-05-04 19:10 | 52.31142 | 4.75497 | -2 ft | 9 kts | 175° |
| 2026-05-04 19:11 | 52.31089 | 4.75454 | -2 ft | 9 kts | 234° |
| 2026-05-04 19:11 | 52.31073 | 4.75416 | -2 ft | 0 kts | 210° |
| 2026-05-04 19:11 | 52.31070 | 4.75416 | -2 ft | 1 kts | 200° |
| 2026-05-04 19:11 | 52.31066 | 4.75417 | -2 ft | 1 kts | 178° |
| 2026-05-04 19:12 | 52.31057 | 4.75427 | -2 ft | 3 kts | 147° |
| 2026-05-04 19:12 | 52.31027 | 4.75458 | -2 ft | 0 kts | 148° |
| 2026-05-04 19:12 | 52.31027 | 4.75459 | -2 ft | 0 kts | 147° |